Airfield :
LOGIN :

Register | Disclaimer

   EN    FR    IT 

 










Legend :    VFR   Marginal VFR   IFR   Intensive IFR   Very Intensive IFR
Visi :
Ceiling :
>= 8 km
>= 3000ft
5 to 8 km
1000 to 3000 ft
1500m to 5 km
500 to 1000 ft
800 to 1500m
200 to 500 ft
< 800m
< 200 ft
Symbols :   Thunderstorms  Fog  Heavy snow  Heavy precipitations  Wind > 20 kt
SIGMETs :     Misc.  Thunderstorms  Icing  Turbulence  Mountain Waves  Volcanic Ashes







- Airport Elevation : 53 ft
- IATA code : LBC


EDHL - Lübeck

CURRENT METAR :
  • 211820Z 23010KT 9999 FEW022 13/06 Q1006

EXPIRED METARs :
  • 211750Z 23010KT CAVOK 13/07 Q1005
  • 211720Z 23010KT 9999 FEW044 13/07 Q1005
  • 211650Z 24009KT 210V270 9999 FEW040 13/09 Q1005 RESHRA
  • 211620Z 23010KT 9999 SHRA SCT037 SCT170 14/08 Q1004
  • 211550Z 23011KT 9999 FEW024 SCT130 15/09 Q1004

TAF TAF EDHL
Valid from the 21 at 18:00 until the 21 at 21:00 UTC


211700Z 2118/2121 25015G25KT 9999 SCT035
No reported NOTAMs for that airfield.



MET'MAP, your aeronautical weather chart ! - Copyright ORBIFLY December 2007 - Disclaimer

ORBIFLY MET'MAP TEAM :

Programming & Development : Alexandra Zaïnal
Concept & Development : Baudouin d'Aumeries
Co-Development & Prog : Marc-Olivier Méhu
Technical & hardware support : Manuel Goepfert

Contact : metmap@orbifly.com




SOURCES & CREDITS :

   NOAA